createdAt,value
2018-09-22T00:02:30.971Z,62.4
2018-09-22T00:07:39.368Z,62.4
2018-09-22T00:12:47.577Z,63
2018-09-22T00:17:55.864Z,63
2018-09-22T00:23:04.462Z,62.8
2018-09-22T00:33:20.780Z,63.2
2018-09-22T00:38:29.141Z,63.5
2018-09-22T00:43:37.748Z,62.9
2018-09-22T00:53:54.067Z,62.9
2018-09-22T01:04:10.655Z,63
2018-09-22T01:09:18.876Z,63.2
2018-09-22T01:19:35.363Z,63.1
2018-09-22T01:24:43.721Z,63.2
2018-09-22T01:29:51.849Z,62.9
2018-09-22T01:40:08.422Z,63.1
2018-09-22T01:45:16.653Z,62.5
2018-09-22T01:50:24.950Z,62.9
2018-09-22T01:55:33.211Z,62.7
2018-09-22T02:00:41.571Z,62.7
2018-09-22T02:05:49.816Z,62.6
2018-09-22T02:10:58.189Z,62.4
2018-09-22T02:16:06.622Z,62.4
2018-09-22T02:21:14.763Z,62.2
2018-09-22T02:26:23.254Z,62.4
2018-09-22T02:36:39.635Z,62.7
2018-09-22T02:41:48.202Z,62.9
2018-09-22T02:46:56.217Z,62.7
2018-09-22T02:52:04.504Z,62.8
2018-09-22T02:57:12.808Z,62.9
2018-09-22T03:02:21.200Z,63.1
2018-09-22T03:07:29.373Z,63
2018-09-22T03:12:37.696Z,63.2
2018-09-22T03:17:45.997Z,63.1
2018-09-22T03:22:54.277Z,63.1
2018-09-22T03:33:10.869Z,63.1
2018-09-22T03:38:19.159Z,63.2
2018-09-22T03:43:27.481Z,63.6
2018-09-22T03:48:35.805Z,63.2
2018-09-22T03:53:44.172Z,63.4
2018-09-22T03:58:52.417Z,63.2
2018-09-22T04:04:00.750Z,63.2
2018-09-22T04:09:09.057Z,63.3
2018-09-22T04:19:26.356Z,63.8
2018-09-22T04:24:33.988Z,63.4
2018-09-22T04:29:42.225Z,63.8
2018-09-22T04:34:50.764Z,63.5
2018-09-22T04:45:07.368Z,63.6
2018-09-22T04:50:15.719Z,63.7
2018-09-22T04:55:23.788Z,63.4
2018-09-22T05:00:32.091Z,63.9
2018-09-22T05:05:40.453Z,64.2
2018-09-22T05:10:48.778Z,64.2
2018-09-22T05:16:02.752Z,64.8
2018-09-22T05:26:13.615Z,64.3
2018-09-22T05:31:21.892Z,64.5
2018-09-22T05:36:30.135Z,64.4
2018-09-22T05:41:38.389Z,64.5
2018-09-22T05:46:46.876Z,64
2018-09-22T05:51:54.895Z,64.4
2018-09-22T06:12:28.799Z,64.4
2018-09-22T06:17:35.909Z,63.6
2018-09-22T06:22:44.117Z,63.3
2018-09-22T06:27:52.320Z,63.6
2018-09-22T06:33:00.469Z,63.8
2018-09-22T06:38:08.728Z,63.1
2018-09-22T06:43:16.721Z,62.8
2018-09-22T06:48:24.826Z,61.1
2018-09-22T06:53:32.971Z,60.1
2018-09-22T06:58:41.006Z,60.8
2018-09-22T07:03:49.049Z,61.1
2018-09-22T07:08:57.071Z,61
2018-09-22T07:14:05.118Z,59.8
2018-09-22T07:19:13.036Z,57.1
2018-09-22T07:29:28.976Z,55.4
2018-09-22T07:34:36.991Z,54.8
2018-09-22T07:50:00.466Z,54.5
2018-09-22T07:55:08.253Z,52.9
2018-09-22T08:00:16.028Z,51.4
2018-09-22T08:05:23.901Z,52.4
2018-09-22T08:15:40.089Z,51.3
2018-09-22T08:20:46.810Z,51.8
2018-09-22T08:31:01.999Z,48.1
2018-09-22T08:41:17.046Z,47.3
2018-09-22T08:46:24.507Z,47.2
2018-09-22T08:51:31.993Z,46.1
2018-09-22T08:56:39.507Z,45.1
2018-09-22T09:01:48.955Z,44.4
2018-09-22T09:06:54.130Z,42.8
2018-09-22T09:12:01.477Z,41.7
2018-09-22T09:17:08.770Z,44.3
2018-09-22T09:27:23.459Z,44.9
2018-09-22T09:32:30.862Z,44.3
2018-09-22T09:37:38.281Z,44.5
2018-09-22T09:42:45.554Z,45
2018-09-22T09:47:53.009Z,44.9
2018-09-22T09:53:00.438Z,45.7
2018-09-22T10:03:15.187Z,43
2018-09-22T10:18:37.429Z,42
2018-09-22T10:28:52.384Z,41.3
2018-09-22T10:33:59.798Z,41.4
2018-09-22T10:39:07.265Z,41
2018-09-22T10:59:36.974Z,41.1
2018-09-22T11:09:51.914Z,39.7
2018-09-22T11:20:06.868Z,37.4
2018-09-22T11:30:21.690Z,38.4
2018-09-22T11:40:36.591Z,40.5
2018-09-22T11:45:46.548Z,37.7
2018-09-22T11:55:59.136Z,37.5
2018-09-22T12:01:06.572Z,37
2018-09-22T12:16:29.042Z,37.5
2018-09-22T12:21:36.544Z,37.5
2018-09-22T12:26:43.963Z,36.4
2018-09-22T12:36:59.168Z,36.2
2018-09-22T12:57:29.036Z,37.6
2018-09-22T13:07:44.036Z,37.8
2018-09-22T13:17:59.196Z,38.7
2018-09-22T13:28:14.241Z,39.6
2018-09-22T13:33:21.974Z,39.1
2018-09-22T13:38:29.452Z,38.9
2018-09-22T13:43:37.076Z,40.9
2018-09-22T13:48:44.640Z,40.3
2018-09-22T13:59:00.429Z,39.8
2018-09-22T14:04:07.668Z,39.2
2018-09-22T14:14:22.875Z,39
2018-09-22T14:24:38.029Z,39.2
2018-09-22T14:34:53.739Z,39.3
2018-09-22T14:40:00.939Z,40.2
2018-09-22T14:45:08.449Z,39
2018-09-22T14:55:23.811Z,37.8
2018-09-22T15:05:39.063Z,37.3
2018-09-22T15:10:46.898Z,36.4
2018-09-22T15:21:02.237Z,43.5
2018-09-22T15:26:09.966Z,44.7
2018-09-22T15:31:17.834Z,45.4
2018-09-22T15:36:25.621Z,47.1
2018-09-22T15:41:33.819Z,47.5
2018-09-22T15:46:41.520Z,47.7
2018-09-22T15:51:49.391Z,49.5
2018-09-22T15:56:57.320Z,49.9
2018-09-22T16:02:05.318Z,51.1
2018-09-22T16:07:13.292Z,50.9
2018-09-22T16:17:29.352Z,52.6
2018-09-22T16:22:37.428Z,53.3
2018-09-22T16:27:45.459Z,54.1
2018-09-22T16:32:53.498Z,54.7
2018-09-22T16:38:01.604Z,54.9
2018-09-22T16:43:09.729Z,55.7
2018-09-22T16:48:17.795Z,56.1
2018-09-22T16:53:25.995Z,56.5
2018-09-22T16:58:35.217Z,57
2018-09-22T17:03:42.199Z,57.4
2018-09-22T17:08:50.344Z,57.5
2018-09-22T17:13:58.494Z,58
2018-09-22T17:24:17.702Z,57.6
2018-09-22T17:29:22.922Z,58.1
2018-09-22T17:34:31.049Z,57.8
2018-09-22T17:39:39.233Z,58.1
2018-09-22T17:44:47.407Z,58.5
2018-09-22T17:49:55.568Z,58.6
2018-09-22T18:05:20.134Z,59.2
2018-09-22T18:10:28.334Z,59.1
2018-09-22T18:15:37.311Z,59.5
2018-09-22T18:20:44.798Z,59.3
2018-09-22T18:25:53.015Z,59.4
2018-09-22T18:31:01.413Z,60
2018-09-22T18:36:09.391Z,59.8
2018-09-22T18:41:17.601Z,59.8
2018-09-22T18:46:25.825Z,59.8
2018-09-22T18:51:33.954Z,59.7
2018-09-22T18:56:42.152Z,59.4
2018-09-22T19:01:50.359Z,59.7
2018-09-22T19:06:58.569Z,60.3
2018-09-22T19:12:06.810Z,60.4
2018-09-22T19:17:15.059Z,59.9
2018-09-22T19:27:31.594Z,60.2
2018-09-22T19:32:39.812Z,60.2
2018-09-22T19:42:56.253Z,61.1
2018-09-22T19:48:04.529Z,60.8
2018-09-22T19:53:12.868Z,61.1
2018-09-22T19:58:21.149Z,61.2
2018-09-22T20:08:37.572Z,61.1
2018-09-22T20:13:45.829Z,61.5
2018-09-22T20:18:54.126Z,61.9
2018-09-22T20:29:10.724Z,61.5
2018-09-22T20:34:19.035Z,62.4
2018-09-22T20:39:27.328Z,61.9
2018-09-22T20:44:35.615Z,62.6
2018-09-22T20:49:43.945Z,62.7
2018-09-22T20:54:52.234Z,62.8
2018-09-22T21:00:00.476Z,63
2018-09-22T21:05:08.843Z,63.2
2018-09-22T21:10:17.128Z,63.1
2018-09-22T21:15:25.554Z,63.2
2018-09-22T21:25:42.328Z,63
2018-09-22T21:30:50.304Z,63.2
2018-09-22T21:35:58.466Z,63.5
2018-09-22T21:41:06.745Z,63.5
2018-09-22T21:51:23.497Z,63.3
2018-09-22T21:56:31.570Z,63.5
2018-09-22T22:01:39.859Z,63.2
2018-09-22T22:06:48.457Z,63.1
2018-09-22T22:11:56.506Z,63.2
2018-09-22T22:17:04.753Z,63.2
2018-09-22T22:22:13.025Z,63.3
2018-09-22T22:27:21.443Z,63
2018-09-22T22:32:29.770Z,63.1
2018-09-22T22:37:37.876Z,63.1
2018-09-22T22:42:46.145Z,63.5
2018-09-22T22:47:54.405Z,63.5
2018-09-22T22:53:02.788Z,63.5
2018-09-22T22:58:11.037Z,63.2
2018-09-22T23:08:27.598Z,63.5
2018-09-22T23:13:35.752Z,63.5
2018-09-22T23:18:44.009Z,63.6
2018-09-22T23:23:52.343Z,63.6
2018-09-22T23:29:00.518Z,63.6
2018-09-22T23:34:08.812Z,63.5
2018-09-22T23:39:17.126Z,64
2018-09-22T23:44:25.366Z,64
2018-09-22T23:49:33.665Z,64
2018-09-22T23:54:41.904Z,63.6
2018-09-22T23:59:50.267Z,63.9
